createdAt,value
2023-07-23T00:00:23.764Z,19.13
2023-07-23T00:02:50.323Z,19.24
2023-07-23T00:05:16.885Z,19.22
2023-07-23T00:07:43.442Z,19.20
2023-07-23T00:10:12.881Z,18.97
2023-07-23T00:12:39.385Z,19.13
2023-07-23T00:15:06.179Z,19.09
2023-07-23T00:17:32.728Z,19.04
2023-07-23T00:19:59.360Z,19.11
2023-07-23T00:22:27.095Z,19.11
2023-07-23T00:24:58.183Z,19.13
2023-07-23T00:27:24.746Z,19.04
2023-07-23T00:29:51.257Z,19.00
2023-07-23T00:32:17.737Z,19.06
2023-07-23T00:34:44.250Z,18.99
2023-07-23T00:37:10.912Z,19.00
2023-07-23T00:39:39.943Z,18.97
2023-07-23T00:42:06.561Z,18.98
2023-07-23T00:44:33.132Z,19.01
2023-07-23T00:47:01.230Z,18.88
2023-07-23T00:49:28.293Z,18.82
2023-07-23T00:51:54.816Z,18.81
2023-07-23T00:54:22.182Z,18.82
2023-07-23T00:56:48.974Z,18.76
2023-07-23T00:59:15.553Z,18.57
2023-07-23T01:01:42.167Z,18.81
2023-07-23T01:04:08.733Z,18.82
2023-07-23T01:06:37.558Z,18.77
2023-07-23T01:09:05.245Z,18.77
2023-07-23T01:11:32.364Z,18.79
2023-07-23T01:14:02.317Z,18.76
2023-07-23T01:16:28.867Z,18.70
2023-07-23T01:18:55.488Z,18.61
2023-07-23T01:21:22.006Z,18.68
2023-07-23T01:23:48.541Z,18.60
2023-07-23T01:26:17.385Z,18.61
2023-07-23T01:28:43.909Z,18.50
2023-07-23T01:31:13.639Z,18.45
2023-07-23T01:33:43.227Z,18.38
2023-07-23T01:36:10.798Z,18.37
2023-07-23T01:38:37.545Z,18.35
2023-07-23T01:41:05.153Z,18.34
2023-07-23T01:43:31.809Z,18.40
2023-07-23T01:45:58.300Z,18.32
2023-07-23T01:48:26.259Z,18.36
2023-07-23T01:50:52.778Z,18.28
2023-07-23T01:53:19.342Z,18.24
2023-07-23T01:55:45.857Z,18.26
2023-07-23T01:58:12.414Z,18.22
2023-07-23T02:00:39.460Z,18.25
2023-07-23T02:03:06.052Z,18.22
2023-07-23T02:05:32.593Z,18.11
2023-07-23T02:07:59.130Z,18.17
2023-07-23T02:10:25.654Z,18.17
2023-07-23T02:12:52.185Z,18.22
2023-07-23T02:15:19.845Z,18.17
2023-07-23T02:17:46.501Z,18.09
2023-07-23T02:20:13.163Z,18.11
2023-07-23T02:22:39.694Z,18.12
2023-07-23T02:25:06.554Z,17.99
2023-07-23T02:27:34.593Z,17.99
2023-07-23T02:30:01.077Z,17.94
2023-07-23T02:32:27.665Z,18.04
2023-07-23T02:34:54.198Z,18.01
2023-07-23T02:37:20.721Z,18.02
2023-07-23T02:39:47.240Z,17.98
2023-07-23T02:42:13.724Z,17.99
2023-07-23T02:44:40.516Z,18.00
2023-07-23T02:47:07.113Z,17.91
2023-07-23T02:49:33.611Z,18.03
2023-07-23T02:52:00.256Z,18.01
2023-07-23T02:54:26.757Z,17.94
2023-07-23T02:56:53.245Z,17.92
2023-07-23T02:59:19.786Z,17.83
2023-07-23T03:01:46.290Z,17.81
2023-07-23T03:04:14.901Z,17.79
2023-07-23T03:06:41.474Z,17.77
2023-07-23T03:09:08.063Z,17.83
2023-07-23T03:11:34.575Z,17.64
2023-07-23T03:14:01.107Z,17.70
2023-07-23T03:16:27.634Z,17.53
2023-07-23T03:18:54.187Z,17.61
2023-07-23T03:21:20.779Z,17.64
2023-07-23T03:23:47.299Z,17.73
2023-07-23T03:26:13.793Z,17.61
2023-07-23T03:28:41.031Z,17.69
2023-07-23T03:31:07.569Z,17.62
2023-07-23T03:33:34.084Z,17.66
2023-07-23T03:36:00.550Z,17.69
2023-07-23T03:38:27.038Z,17.62
2023-07-23T03:40:53.570Z,17.60
2023-07-23T03:43:20.056Z,17.51
2023-07-23T03:45:46.669Z,17.42
2023-07-23T03:48:13.261Z,17.46
2023-07-23T03:50:39.826Z,17.60
2023-07-23T03:53:06.322Z,17.43
2023-07-23T03:55:34.433Z,17.43
2023-07-23T03:58:01.027Z,17.54
2023-07-23T04:00:27.531Z,17.33
2023-07-23T04:02:54.059Z,17.41
2023-07-23T04:05:20.646Z,17.33
2023-07-23T04:07:47.131Z,17.35
2023-07-23T04:10:13.674Z,17.44
2023-07-23T04:12:40.224Z,17.51
2023-07-23T04:15:07.006Z,17.42
2023-07-23T04:17:33.729Z,17.34
2023-07-23T04:20:00.371Z,17.31
2023-07-23T04:22:26.902Z,17.30
2023-07-23T04:24:53.603Z,17.38
2023-07-23T04:27:20.191Z,17.40
2023-07-23T04:29:46.700Z,17.47
2023-07-23T04:32:13.213Z,17.53
2023-07-23T04:34:40.310Z,17.55
2023-07-23T04:37:08.057Z,17.56
2023-07-23T04:39:34.817Z,17.55
2023-07-23T04:42:01.452Z,17.45
2023-07-23T04:44:28.246Z,17.47
2023-07-23T04:46:54.756Z,17.42
2023-07-23T04:49:21.244Z,17.44
2023-07-23T04:51:47.740Z,17.51
2023-07-23T04:54:14.304Z,17.60
2023-07-23T04:56:40.933Z,17.68
2023-07-23T04:59:08.600Z,17.84
2023-07-23T05:01:35.247Z,17.96
2023-07-23T05:04:01.886Z,17.98
2023-07-23T05:06:28.455Z,18.22
2023-07-23T05:08:54.946Z,18.29
2023-07-23T05:11:21.402Z,18.32
2023-07-23T05:13:48.047Z,18.28
2023-07-23T05:16:14.669Z,18.28
2023-07-23T05:18:41.219Z,18.19
2023-07-23T05:21:07.835Z,18.25
2023-07-23T05:23:34.383Z,18.06
2023-07-23T05:26:00.945Z,18.01
2023-07-23T05:28:27.427Z,17.99
2023-07-23T05:31:00.796Z,17.89
2023-07-23T05:33:27.676Z,18.05
2023-07-23T05:35:54.492Z,17.89
2023-07-23T05:38:21.064Z,17.94
2023-07-23T05:40:59.816Z,18.11
2023-07-23T05:43:29.248Z,18.25
2023-07-23T05:45:57.884Z,18.37
2023-07-23T05:48:24.482Z,18.34
2023-07-23T05:50:51.018Z,18.45
2023-07-23T05:53:17.623Z,18.57
2023-07-23T05:55:44.150Z,18.66
2023-07-23T05:58:10.628Z,18.77
2023-07-23T06:00:37.133Z,18.59
2023-07-23T06:03:03.918Z,18.53
2023-07-23T06:05:30.516Z,18.58
2023-07-23T06:07:57.101Z,18.53
2023-07-23T06:10:23.667Z,18.69
2023-07-23T06:12:50.199Z,18.61
2023-07-23T06:15:16.810Z,18.64
2023-07-23T06:17:43.351Z,18.67
2023-07-23T06:20:10.217Z,18.65
2023-07-23T06:22:36.720Z,18.79
2023-07-23T06:25:03.547Z,19.04
2023-07-23T06:27:30.055Z,19.35
2023-07-23T06:29:56.581Z,19.50
2023-07-23T06:32:23.227Z,19.56
2023-07-23T06:34:49.747Z,19.66
2023-07-23T06:37:16.194Z,19.69
2023-07-23T06:39:42.679Z,19.81
2023-07-23T06:42:09.177Z,20.14
2023-07-23T06:44:35.711Z,20.83
2023-07-23T06:47:02.262Z,20.98
2023-07-23T06:49:29.794Z,21.18
2023-07-23T06:51:57.029Z,21.85
2023-07-23T06:54:23.950Z,21.59
2023-07-23T06:56:54.958Z,22.02
2023-07-23T06:59:21.857Z,22.15
2023-07-23T07:01:48.474Z,22.74
2023-07-23T07:04:15.041Z,23.21
2023-07-23T07:06:41.564Z,23.43
2023-07-23T07:09:08.135Z,23.15
2023-07-23T07:11:34.664Z,23.86
2023-07-23T07:14:01.190Z,25.07
2023-07-23T07:16:27.738Z,25.16
2023-07-23T07:18:54.757Z,24.90
2023-07-23T07:21:21.263Z,24.98
2023-07-23T07:23:47.810Z,24.33
2023-07-23T07:26:14.376Z,24.55
2023-07-23T07:28:40.940Z,25.00
2023-07-23T07:31:07.541Z,25.77
2023-07-23T07:33:34.123Z,26.18
2023-07-23T07:36:01.609Z,26.96
2023-07-23T07:38:28.697Z,26.93
2023-07-23T07:40:57.330Z,27.54
2023-07-23T07:43:24.473Z,26.47
2023-07-23T07:45:55.333Z,26.39
2023-07-23T07:48:22.245Z,26.57
2023-07-23T07:50:57.619Z,26.99
2023-07-23T07:53:24.161Z,26.82
2023-07-23T07:55:50.683Z,26.85
2023-07-23T07:58:18.042Z,26.84
2023-07-23T08:00:44.864Z,27.20
2023-07-23T08:03:11.873Z,27.36
2023-07-23T08:05:39.152Z,27.42
2023-07-23T08:08:07.076Z,27.47
2023-07-23T08:10:35.461Z,27.42
2023-07-23T08:13:03.573Z,27.45
2023-07-23T08:15:32.637Z,27.63
2023-07-23T08:18:00.778Z,28.12
2023-07-23T08:20:33.793Z,29.09
2023-07-23T08:23:00.570Z,30.60
2023-07-23T08:25:27.450Z,30.66
2023-07-23T08:28:03.082Z,31.08
2023-07-23T08:30:30.806Z,31.01
2023-07-23T08:32:59.284Z,31.67
2023-07-23T08:35:27.548Z,31.04
2023-07-23T08:37:55.635Z,30.80
2023-07-23T08:40:24.718Z,30.26
2023-07-23T08:42:56.984Z,30.51
2023-07-23T08:45:50.660Z,30.08
2023-07-23T08:48:18.369Z,30.67
2023-07-23T08:50:51.298Z,30.96
2023-07-23T08:53:19.201Z,30.60
2023-07-23T08:55:47.454Z,30.47
2023-07-23T08:58:18.380Z,30.59
2023-07-23T09:00:46.584Z,30.66
2023-07-23T09:03:15.797Z,30.63
2023-07-23T09:05:42.476Z,30.78
2023-07-23T09:08:09.008Z,31.12
2023-07-23T09:10:35.586Z,31.54
2023-07-23T09:13:15.606Z,31.06
2023-07-23T09:15:43.204Z,31.70
2023-07-23T09:18:10.233Z,32.56
2023-07-23T09:20:36.815Z,33.41
2023-07-23T09:23:07.813Z,33.55
2023-07-23T09:25:34.937Z,34.39
2023-07-23T09:28:01.515Z,34.98
2023-07-23T09:30:29.071Z,35.36
2023-07-23T09:33:03.048Z,36.56
2023-07-23T09:35:31.352Z,36.03
2023-07-23T09:37:59.772Z,37.00
2023-07-23T09:40:41.119Z,36.65
2023-07-23T09:43:08.484Z,36.77
2023-07-23T09:45:39.990Z,37.05
2023-07-23T09:48:16.059Z,37.54
2023-07-23T09:50:43.240Z,38.05
2023-07-23T09:53:10.451Z,38.31
2023-07-23T09:55:38.195Z,38.35
2023-07-23T09:58:06.914Z,38.92
2023-07-23T10:00:35.224Z,38.92
2023-07-23T10:03:04.023Z,39.13
2023-07-23T10:05:32.804Z,39.20
2023-07-23T10:08:04.808Z,39.73
2023-07-23T10:10:31.781Z,40.08
2023-07-23T10:12:58.335Z,38.94
2023-07-23T10:15:24.969Z,39.64
2023-07-23T10:17:55.994Z,40.02
2023-07-23T10:20:23.373Z,39.77
2023-07-23T10:22:50.304Z,40.16
2023-07-23T10:25:34.629Z,40.26
2023-07-23T10:28:09.015Z,40.92
2023-07-23T10:30:39.868Z,40.34
2023-07-23T10:33:13.003Z,39.72
2023-07-23T10:35:55.898Z,38.75
2023-07-23T10:38:27.689Z,40.25
2023-07-23T10:40:54.465Z,38.91
2023-07-23T10:43:20.979Z,39.25
2023-07-23T10:46:11.646Z,38.89
2023-07-23T10:48:43.104Z,39.00
2023-07-23T10:51:11.591Z,38.55
2023-07-23T10:53:40.585Z,37.64
2023-07-23T10:56:23.246Z,36.43
2023-07-23T10:58:50.764Z,36.33
2023-07-23T11:01:24.963Z,35.81
2023-07-23T11:03:55.281Z,35.29
2023-07-23T11:06:29.687Z,36.32
2023-07-23T11:08:58.925Z,36.14
2023-07-23T11:11:40.470Z,37.01
2023-07-23T11:14:21.230Z,37.79
2023-07-23T11:16:50.055Z,37.13
2023-07-23T11:19:21.226Z,35.79
2023-07-23T11:21:53.273Z,34.16
2023-07-23T11:24:21.330Z,34.31
2023-07-23T11:26:48.664Z,34.16
2023-07-23T11:29:15.449Z,34.51
2023-07-23T11:31:42.971Z,34.23
2023-07-23T11:34:10.079Z,34.50
2023-07-23T11:36:39.282Z,34.76
2023-07-23T11:39:07.490Z,36.10
2023-07-23T11:41:42.252Z,38.16
2023-07-23T11:44:09.733Z,39.07
2023-07-23T11:46:40.916Z,37.59
2023-07-23T11:49:11.024Z,36.99
2023-07-23T11:51:38.776Z,37.08
2023-07-23T11:54:13.027Z,36.61
2023-07-23T11:56:47.073Z,38.91
2023-07-23T11:59:18.316Z,38.00
2023-07-23T12:01:46.423Z,36.79
2023-07-23T12:04:13.215Z,37.87
2023-07-23T12:06:41.111Z,37.54
2023-07-23T12:09:09.734Z,36.83
2023-07-23T12:11:39.066Z,36.82
2023-07-23T12:14:07.741Z,38.25
2023-07-23T12:16:48.254Z,39.26
2023-07-23T12:19:19.940Z,39.13
2023-07-23T12:21:48.891Z,38.69
2023-07-23T12:24:30.038Z,37.91
2023-07-23T12:26:58.641Z,37.75
2023-07-23T12:29:26.850Z,35.94
2023-07-23T12:32:17.810Z,36.42
2023-07-23T12:34:46.319Z,35.59
2023-07-23T12:37:14.105Z,35.25
2023-07-23T12:39:40.921Z,34.90
2023-07-23T12:42:07.809Z,34.73
2023-07-23T12:44:35.412Z,34.26
2023-07-23T12:47:02.150Z,34.47
2023-07-23T12:49:28.689Z,34.13
2023-07-23T12:51:55.173Z,34.10
2023-07-23T12:54:21.639Z,34.01
2023-07-23T12:56:48.195Z,34.51
2023-07-23T12:59:14.764Z,34.73
2023-07-23T13:01:42.490Z,34.47
2023-07-23T13:04:09.309Z,34.61
2023-07-23T13:06:35.955Z,34.29
2023-07-23T13:09:02.540Z,33.57
2023-07-23T13:11:29.048Z,32.91
2023-07-23T13:13:55.546Z,32.53
2023-07-23T13:16:22.143Z,31.90
2023-07-23T13:18:48.867Z,31.19
2023-07-23T13:21:15.555Z,31.20
2023-07-23T13:23:43.032Z,31.19
2023-07-23T13:26:09.697Z,31.06
2023-07-23T13:28:36.202Z,31.00
2023-07-23T13:31:02.974Z,30.85
2023-07-23T13:33:29.567Z,30.66
2023-07-23T13:35:56.108Z,30.63
2023-07-23T13:38:23.793Z,30.52
2023-07-23T13:40:51.563Z,30.41
2023-07-23T13:43:18.128Z,30.07
2023-07-23T13:45:44.683Z,29.80
2023-07-23T13:48:11.224Z,29.86
2023-07-23T13:50:49.616Z,29.85
2023-07-23T13:53:18.202Z,29.83
2023-07-23T13:55:44.757Z,29.71
2023-07-23T13:58:11.318Z,29.66
2023-07-23T14:00:37.971Z,29.68
2023-07-23T14:03:05.065Z,29.72
2023-07-23T14:05:32.492Z,29.86
2023-07-23T14:07:59.298Z,29.76
2023-07-23T14:10:26.283Z,29.70
2023-07-23T14:12:52.909Z,29.72
2023-07-23T14:15:19.601Z,29.82
2023-07-23T14:17:46.245Z,30.01
2023-07-23T14:20:12.749Z,30.24
2023-07-23T14:22:39.397Z,30.32
2023-07-23T14:25:06.106Z,30.30
2023-07-23T14:27:32.702Z,30.80
2023-07-23T14:29:59.251Z,31.63
2023-07-23T14:32:25.821Z,31.76
2023-07-23T14:34:52.409Z,31.37
2023-07-23T14:37:18.982Z,30.88
2023-07-23T14:39:45.553Z,30.45
2023-07-23T14:42:12.436Z,30.92
2023-07-23T14:44:41.020Z,31.03
2023-07-23T14:47:08.819Z,30.65
2023-07-23T14:49:37.418Z,30.87
2023-07-23T14:52:04.868Z,30.99
2023-07-23T14:54:31.444Z,30.77
2023-07-23T14:56:58.006Z,30.57
2023-07-23T14:59:24.542Z,30.31
2023-07-23T15:01:51.144Z,30.25
2023-07-23T15:04:17.719Z,30.29
2023-07-23T15:06:44.270Z,30.85
2023-07-23T15:09:13.222Z,30.86
2023-07-23T15:11:41.228Z,31.06
2023-07-23T15:14:08.037Z,30.86
2023-07-23T15:16:35.076Z,31.00
2023-07-23T15:19:01.919Z,31.29
2023-07-23T15:21:29.024Z,31.58
2023-07-23T15:23:56.176Z,31.12
2023-07-23T15:26:26.379Z,31.19
2023-07-23T15:28:57.168Z,31.41
2023-07-23T15:31:23.689Z,31.32
2023-07-23T15:33:50.167Z,31.10
2023-07-23T15:36:16.692Z,30.70
2023-07-23T15:38:43.219Z,31.07
2023-07-23T15:41:09.917Z,31.10
2023-07-23T15:43:37.175Z,31.22
2023-07-23T15:46:03.670Z,31.23
2023-07-23T15:48:30.192Z,31.07
2023-07-23T15:50:56.688Z,30.65
2023-07-23T15:53:23.278Z,30.68
2023-07-23T15:55:49.854Z,30.67
2023-07-23T15:58:16.357Z,30.45
2023-07-23T16:00:43.240Z,30.53
2023-07-23T16:03:09.810Z,30.51
2023-07-23T16:05:36.501Z,30.31
2023-07-23T16:08:03.054Z,30.13
2023-07-23T16:10:29.875Z,30.30
2023-07-23T16:12:57.611Z,29.93
2023-07-23T16:15:25.005Z,29.88
2023-07-23T16:17:51.618Z,29.73
2023-07-23T16:20:18.292Z,29.51
2023-07-23T16:22:44.830Z,29.37
2023-07-23T16:25:11.393Z,29.32
2023-07-23T16:27:38.523Z,29.29
2023-07-23T16:30:05.842Z,29.28
2023-07-23T16:32:32.806Z,29.20
2023-07-23T16:34:59.577Z,29.17
2023-07-23T16:37:29.271Z,29.26
2023-07-23T16:39:57.627Z,29.31
2023-07-23T16:42:26.811Z,29.55
2023-07-23T16:44:54.119Z,29.58
2023-07-23T16:47:20.708Z,29.39
2023-07-23T16:49:47.261Z,29.20
2023-07-23T16:52:13.815Z,29.02
2023-07-23T16:54:40.351Z,28.97
2023-07-23T16:57:08.380Z,28.92
2023-07-23T16:59:34.882Z,28.75
2023-07-23T17:02:01.426Z,28.46
2023-07-23T17:04:28.512Z,28.51
2023-07-23T17:06:55.032Z,28.08
2023-07-23T17:09:21.550Z,28.26
2023-07-23T17:11:48.693Z,28.34
2023-07-23T17:14:15.290Z,28.39
2023-07-23T17:16:41.990Z,28.30
2023-07-23T17:19:08.497Z,28.17
2023-07-23T17:21:35.038Z,28.33
2023-07-23T17:24:01.573Z,28.48
2023-07-23T17:26:28.377Z,28.27
2023-07-23T17:28:55.140Z,28.17
2023-07-23T17:31:27.564Z,28.24
2023-07-23T17:33:54.114Z,28.14
2023-07-23T17:36:20.655Z,28.04
2023-07-23T17:38:47.267Z,27.95
2023-07-23T17:41:17.152Z,27.74
2023-07-23T17:43:43.986Z,27.66
2023-07-23T17:46:10.586Z,27.70
2023-07-23T17:48:37.160Z,27.65
2023-07-23T17:51:03.822Z,27.66
2023-07-23T17:53:30.369Z,27.56
2023-07-23T17:55:56.831Z,27.56
2023-07-23T17:58:25.587Z,27.52
2023-07-23T18:00:52.147Z,27.40
2023-07-23T18:03:19.746Z,27.47
2023-07-23T18:05:53.755Z,27.48
2023-07-23T18:08:20.308Z,27.41
2023-07-23T18:10:46.830Z,27.32
2023-07-23T18:13:13.590Z,27.28
2023-07-23T18:15:40.406Z,27.25
2023-07-23T18:18:06.934Z,27.24
2023-07-23T18:20:33.472Z,27.09
2023-07-23T18:23:01.785Z,27.02
2023-07-23T18:25:28.389Z,27.00
2023-07-23T18:27:55.709Z,26.91
2023-07-23T18:30:22.227Z,26.76
2023-07-23T18:32:48.912Z,26.67
2023-07-23T18:35:15.856Z,26.51
2023-07-23T18:37:42.476Z,26.51
2023-07-23T18:40:09.416Z,26.46
2023-07-23T18:42:35.986Z,26.32
2023-07-23T18:45:04.316Z,26.36
2023-07-23T18:47:30.879Z,26.28
2023-07-23T18:49:57.402Z,26.19
2023-07-23T18:52:26.357Z,26.10
2023-07-23T18:54:54.498Z,26.00
2023-07-23T18:57:20.986Z,26.10
2023-07-23T18:59:47.562Z,26.19
2023-07-23T19:02:14.069Z,26.26
2023-07-23T19:04:46.048Z,26.32
2023-07-23T19:07:14.048Z,26.30
2023-07-23T19:09:40.704Z,26.23
2023-07-23T19:12:07.958Z,26.16
2023-07-23T19:14:34.528Z,26.13
2023-07-23T19:17:01.204Z,26.09
2023-07-23T19:19:28.408Z,26.05
2023-07-23T19:21:55.178Z,25.96
2023-07-23T19:24:21.704Z,25.89
2023-07-23T19:26:48.370Z,25.94
2023-07-23T19:29:14.937Z,25.87
2023-07-23T19:31:42.612Z,25.88
2023-07-23T19:34:09.317Z,25.77
2023-07-23T19:36:37.841Z,25.63
2023-07-23T19:39:04.601Z,25.50
2023-07-23T19:41:31.434Z,25.49
2023-07-23T19:44:00.126Z,25.49
2023-07-23T19:46:26.706Z,25.23
2023-07-23T19:48:53.266Z,25.14
2023-07-23T19:51:19.755Z,25.10
2023-07-23T19:53:47.456Z,25.00
2023-07-23T19:56:15.900Z,25.05
2023-07-23T19:58:42.474Z,25.25
2023-07-23T20:01:09.024Z,25.21
2023-07-23T20:03:35.662Z,25.30
2023-07-23T20:06:02.219Z,25.30
2023-07-23T20:08:28.991Z,25.17
2023-07-23T20:10:55.563Z,25.22
2023-07-23T20:13:22.277Z,25.03
2023-07-23T20:15:50.364Z,24.98
2023-07-23T20:18:16.971Z,25.02
2023-07-23T20:20:48.587Z,25.03
2023-07-23T20:23:15.268Z,24.94
2023-07-23T20:25:41.877Z,24.88
2023-07-23T20:28:09.368Z,24.77
2023-07-23T20:30:36.310Z,24.77
2023-07-23T20:33:03.287Z,24.55
2023-07-23T20:35:30.481Z,24.43
2023-07-23T20:37:57.416Z,24.49
2023-07-23T20:40:24.259Z,24.34
2023-07-23T20:42:51.136Z,24.22
2023-07-23T20:45:17.790Z,24.23
2023-07-23T20:47:44.431Z,24.11
2023-07-23T20:50:11.074Z,24.08
2023-07-23T20:52:39.515Z,23.93
2023-07-23T20:55:07.198Z,23.89
2023-07-23T20:57:33.755Z,23.92
2023-07-23T21:00:00.215Z,23.89
2023-07-23T21:02:26.727Z,23.87
2023-07-23T21:04:53.326Z,23.89
2023-07-23T21:07:19.772Z,23.83
2023-07-23T21:09:46.424Z,23.82
2023-07-23T21:12:15.628Z,23.77
2023-07-23T21:14:42.118Z,23.75
2023-07-23T21:17:08.685Z,23.81
2023-07-23T21:19:35.202Z,23.82
2023-07-23T21:22:01.763Z,23.91
2023-07-23T21:24:28.375Z,23.81
2023-07-23T21:26:54.887Z,23.82
2023-07-23T21:29:24.172Z,23.76
2023-07-23T21:31:50.732Z,23.78
2023-07-23T21:34:17.247Z,23.80
2023-07-23T21:36:43.770Z,23.81
2023-07-23T21:39:10.255Z,23.78
2023-07-23T21:41:36.729Z,23.65
2023-07-23T21:44:03.336Z,23.65
2023-07-23T21:46:30.131Z,23.71
2023-07-23T21:48:56.771Z,23.77
2023-07-23T21:51:23.327Z,23.66
2023-07-23T21:53:49.860Z,23.54
2023-07-23T21:56:16.369Z,23.57
2023-07-23T21:58:42.881Z,23.72
2023-07-23T22:01:09.761Z,23.68
2023-07-23T22:03:36.359Z,23.60
2023-07-23T22:06:02.992Z,23.49
2023-07-23T22:08:29.685Z,23.49
2023-07-23T22:10:56.138Z,23.58
2023-07-23T22:13:22.724Z,23.68
2023-07-23T22:15:49.845Z,23.62
2023-07-23T22:18:16.369Z,23.56
2023-07-23T22:20:42.895Z,23.48
2023-07-23T22:23:09.393Z,23.44
2023-07-23T22:25:36.014Z,23.51
2023-07-23T22:28:02.641Z,23.44
2023-07-23T22:30:31.331Z,23.48
2023-07-23T22:32:58.842Z,23.44
2023-07-23T22:35:25.638Z,23.54
2023-07-23T22:37:52.299Z,23.30
2023-07-23T22:40:18.883Z,23.20
2023-07-23T22:42:47.128Z,23.17
2023-07-23T22:45:14.533Z,23.22
2023-07-23T22:47:41.223Z,23.12
2023-07-23T22:50:08.108Z,23.18
2023-07-23T22:52:37.345Z,23.13
2023-07-23T22:55:04.308Z,22.95
2023-07-23T22:57:31.566Z,22.87
2023-07-23T23:00:01.254Z,22.87
2023-07-23T23:02:27.935Z,22.91
2023-07-23T23:04:54.467Z,22.94
2023-07-23T23:07:20.966Z,22.87
2023-07-23T23:09:47.451Z,22.79
2023-07-23T23:12:14.069Z,22.77
2023-07-23T23:14:40.612Z,22.92
2023-07-23T23:17:07.168Z,22.84
2023-07-23T23:19:33.719Z,22.76
2023-07-23T23:22:00.265Z,22.72
2023-07-23T23:24:26.835Z,22.82
2023-07-23T23:26:53.441Z,22.78
2023-07-23T23:29:20.195Z,22.87
2023-07-23T23:31:46.832Z,22.82
2023-07-23T23:34:13.295Z,22.81
2023-07-23T23:36:39.808Z,22.92
2023-07-23T23:39:06.469Z,22.87
2023-07-23T23:41:32.958Z,22.83
2023-07-23T23:43:59.482Z,22.86
2023-07-23T23:46:26.083Z,22.89
2023-07-23T23:48:52.688Z,22.94
2023-07-23T23:51:21.267Z,22.93
2023-07-23T23:53:47.998Z,22.90
2023-07-23T23:56:14.568Z,22.87
2023-07-23T23:58:41.113Z,22.92
